sensor_id;sensor_type;location;lat;lon;timestamp;pressure;altitude;pressure_sealevel;temperature;humidity
1207;BME280;593;53.184;8.216;2024-03-08T00:02:15;101888.19;;;5.36;93.89
1207;BME280;593;53.184;8.216;2024-03-08T00:04:41;101857.88;;;5.09;93.72
1207;BME280;593;53.184;8.216;2024-03-08T00:07:07;101894.84;;;5.34;93.04
1207;BME280;593;53.184;8.216;2024-03-08T00:09:32;101875.16;;;5.27;92.71
1207;BME280;593;53.184;8.216;2024-03-08T00:11:58;101888.41;;;5.35;92.64
1207;BME280;593;53.184;8.216;2024-03-08T00:14:23;101872.72;;;5.25;92.16
1207;BME280;593;53.184;8.216;2024-03-08T00:16:48;101866.53;;;5.18;92.20
1207;BME280;593;53.184;8.216;2024-03-08T00:19:14;101878.28;;;5.24;92.02
1207;BME280;593;53.184;8.216;2024-03-08T00:21:39;101885.09;;;5.33;91.72
1207;BME280;593;53.184;8.216;2024-03-08T00:24:04;101889.72;;;5.26;91.54
1207;BME280;593;53.184;8.216;2024-03-08T00:26:30;101880.38;;;5.22;91.82
1207;BME280;593;53.184;8.216;2024-03-08T00:28:55;101889.50;;;5.27;91.42
1207;BME280;593;53.184;8.216;2024-03-08T00:31:21;101853.53;;;5.08;90.81
1207;BME280;593;53.184;8.216;2024-03-08T00:33:46;101865.94;;;5.16;91.45
1207;BME280;593;53.184;8.216;2024-03-08T00:36:11;101888.66;;;5.27;90.98
1207;BME280;593;53.184;8.216;2024-03-08T00:38:37;101876.44;;;5.24;90.63
1207;BME280;593;53.184;8.216;2024-03-08T00:41:02;101864.25;;;5.15;90.88
1207;BME280;593;53.184;8.216;2024-03-08T00:43:28;101880.19;;;5.23;90.46
1207;BME280;593;53.184;8.216;2024-03-08T00:45:55;101879.38;;;5.23;90.25
1207;BME280;593;53.184;8.216;2024-03-08T00:48:21;101877.09;;;5.19;90.41
1207;BME280;593;53.184;8.216;2024-03-08T00:50:46;101880.38;;;5.22;90.39
1207;BME280;593;53.184;8.216;2024-03-08T00:53:12;101876.06;;;5.21;90.12
1207;BME280;593;53.184;8.216;2024-03-08T00:55:37;101870.50;;;5.15;90.76
1207;BME280;593;53.184;8.216;2024-03-08T00:58:04;101850.19;;;5.06;90.30
1207;BME280;593;53.184;8.216;2024-03-08T01:00:29;101861.78;;;5.13;89.58
1207;BME280;593;53.184;8.216;2024-03-08T01:02:54;101867.78;;;5.15;90.06
1207;BME280;593;53.184;8.216;2024-03-08T01:05:20;101854.31;;;5.15;90.00
1207;BME280;593;53.184;8.216;2024-03-08T01:07:46;101850.38;;;5.11;89.92
1207;BME280;593;53.184;8.216;2024-03-08T01:10:11;101845.75;;;5.18;89.19
1207;BME280;593;53.184;8.216;2024-03-08T01:12:37;101846.22;;;5.15;88.68
1207;BME280;593;53.184;8.216;2024-03-08T01:15:03;101845.81;;;5.12;88.69
1207;BME280;593;53.184;8.216;2024-03-08T01:17:29;101821.63;;;4.99;89.23
1207;BME280;593;53.184;8.216;2024-03-08T01:19:54;101814.59;;;4.98;89.04
1207;BME280;593;53.184;8.216;2024-03-08T01:22:19;101830.72;;;5.04;89.14
1207;BME280;593;53.184;8.216;2024-03-08T01:24:45;101812.34;;;4.95;88.73
1207;BME280;593;53.184;8.216;2024-03-08T01:27:10;101780.31;;;4.80;87.99
1207;BME280;593;53.184;8.216;2024-03-08T01:29:37;101811.31;;;4.96;88.32
1207;BME280;593;53.184;8.216;2024-03-08T01:32:02;101822.44;;;5.06;88.32
1207;BME280;593;53.184;8.216;2024-03-08T01:34:28;101820.34;;;5.08;88.49
1207;BME280;593;53.184;8.216;2024-03-08T01:36:54;101819.50;;;5.07;87.61
1207;BME280;593;53.184;8.216;2024-03-08T01:39:21;101802.38;;;4.95;87.99
1207;BME280;593;53.184;8.216;2024-03-08T01:41:47;101793.53;;;4.88;87.89
1207;BME280;593;53.184;8.216;2024-03-08T01:44:12;101768.91;;;4.78;87.74
1207;BME280;593;53.184;8.216;2024-03-08T01:46:43;101798.88;;;4.95;87.65
1207;BME280;593;53.184;8.216;2024-03-08T01:49:09;101799.47;;;4.97;87.81
1207;BME280;593;53.184;8.216;2024-03-08T01:51:35;101801.72;;;5.00;87.48
1207;BME280;593;53.184;8.216;2024-03-08T01:54:01;101794.06;;;4.97;87.53
1207;BME280;593;53.184;8.216;2024-03-08T01:56:29;101786.88;;;4.91;87.66
1207;BME280;593;53.184;8.216;2024-03-08T01:58:57;101789.34;;;4.92;87.88
1207;BME280;593;53.184;8.216;2024-03-08T02:01:23;101789.94;;;4.94;87.46
1207;BME280;593;53.184;8.216;2024-03-08T02:03:49;101793.47;;;4.95;87.77
1207;BME280;593;53.184;8.216;2024-03-08T02:06:14;101783.34;;;4.90;87.42
1207;BME280;593;53.184;8.216;2024-03-08T02:08:45;101778.56;;;4.92;87.48
1207;BME280;593;53.184;8.216;2024-03-08T02:11:11;101732.56;;;4.56;87.91
1207;BME280;593;53.184;8.216;2024-03-08T02:13:36;101754.63;;;4.78;87.53
1207;BME280;593;53.184;8.216;2024-03-08T02:16:02;101780.41;;;4.92;87.82
1207;BME280;593;53.184;8.216;2024-03-08T02:18:29;101765.09;;;4.92;87.42
1207;BME280;593;53.184;8.216;2024-03-08T02:20:56;101772.56;;;4.90;87.64
1207;BME280;593;53.184;8.216;2024-03-08T02:23:22;101767.00;;;4.85;87.50
1207;BME280;593;53.184;8.216;2024-03-08T02:25:48;101754.81;;;4.76;87.52
1207;BME280;593;53.184;8.216;2024-03-08T02:28:14;101765.56;;;4.83;87.47
1207;BME280;593;53.184;8.216;2024-03-08T02:30:40;101763.47;;;4.85;87.42
1207;BME280;593;53.184;8.216;2024-03-08T02:33:06;101772.22;;;4.80;87.91
1207;BME280;593;53.184;8.216;2024-03-08T02:35:32;101770.56;;;4.79;87.97
1207;BME280;593;53.184;8.216;2024-03-08T02:37:59;101767.84;;;4.79;87.56
1207;BME280;593;53.184;8.216;2024-03-08T02:40:24;101764.13;;;4.80;87.52
1207;BME280;593;53.184;8.216;2024-03-08T02:42:50;101764.97;;;4.81;87.45
1207;BME280;593;53.184;8.216;2024-03-08T02:45:15;101750.25;;;4.77;87.45
1207;BME280;593;53.184;8.216;2024-03-08T02:47:40;101758.13;;;4.78;87.81
1207;BME280;593;53.184;8.216;2024-03-08T02:50:06;101755.63;;;4.77;87.54
1207;BME280;593;53.184;8.216;2024-03-08T02:52:33;101754.00;;;4.76;87.45
1207;BME280;593;53.184;8.216;2024-03-08T02:54:59;101741.63;;;4.68;88.28
1207;BME280;593;53.184;8.216;2024-03-08T02:57:24;101749.66;;;4.75;87.91
1207;BME280;593;53.184;8.216;2024-03-08T02:59:49;101740.97;;;4.73;88.21
1207;BME280;593;53.184;8.216;2024-03-08T03:02:15;101746.56;;;4.71;87.76
1207;BME280;593;53.184;8.216;2024-03-08T03:04:41;101742.22;;;4.70;87.94
1207;BME280;593;53.184;8.216;2024-03-08T03:07:07;101721.53;;;4.64;87.59
1207;BME280;593;53.184;8.216;2024-03-08T03:09:32;101683.53;;;4.41;88.17
1207;BME280;593;53.184;8.216;2024-03-08T03:11:58;101729.00;;;4.62;87.63
1207;BME280;593;53.184;8.216;2024-03-08T03:14:24;101721.53;;;4.64;87.96
1207;BME280;593;53.184;8.216;2024-03-08T03:16:49;101689.50;;;4.49;87.90
1207;BME280;593;53.184;8.216;2024-03-08T03:19:15;101720.31;;;4.60;88.28
1207;BME280;593;53.184;8.216;2024-03-08T03:21:40;101730.00;;;4.68;88.17
1207;BME280;593;53.184;8.216;2024-03-08T03:24:08;101718.41;;;4.67;88.13
1207;BME280;593;53.184;8.216;2024-03-08T03:26:36;101726.47;;;4.67;88.16
1207;BME280;593;53.184;8.216;2024-03-08T03:29:05;101723.00;;;4.60;88.41
1207;BME280;593;53.184;8.216;2024-03-08T03:31:31;101733.56;;;4.62;88.98
1207;BME280;593;53.184;8.216;2024-03-08T03:33:56;101721.94;;;4.61;88.63
1207;BME280;593;53.184;8.216;2024-03-08T03:36:27;101697.63;;;4.43;88.09
1207;BME280;593;53.184;8.216;2024-03-08T03:39:40;101728.16;;;4.62;88.42
1207;BME280;593;53.184;8.216;2024-03-08T03:42:17;101728.41;;;4.60;88.51
1207;BME280;593;53.184;8.216;2024-03-08T03:44:47;101730.50;;;4.58;88.44
1207;BME280;593;53.184;8.216;2024-03-08T03:47:14;101729.44;;;4.59;89.22
1207;BME280;593;53.184;8.216;2024-03-08T03:49:43;101731.28;;;4.59;89.22
1207;BME280;593;53.184;8.216;2024-03-08T03:52:09;101731.53;;;4.57;88.81
1207;BME280;593;53.184;8.216;2024-03-08T03:54:38;101728.81;;;4.57;89.10
1207;BME280;593;53.184;8.216;2024-03-08T03:57:04;101719.09;;;4.56;88.68
1207;BME280;593;53.184;8.216;2024-03-08T03:59:29;101714.56;;;4.50;88.85
1207;BME280;593;53.184;8.216;2024-03-08T04:01:55;101717.03;;;4.51;88.94
1207;BME280;593;53.184;8.216;2024-03-08T04:04:21;101722.84;;;4.48;89.06
1207;BME280;593;53.184;8.216;2024-03-08T04:06:46;101708.41;;;4.43;89.12
1207;BME280;593;53.184;8.216;2024-03-08T04:09:12;101710.66;;;4.46;89.42
1207;BME280;593;53.184;8.216;2024-03-08T04:11:39;101718.13;;;4.44;89.49
1207;BME280;593;53.184;8.216;2024-03-08T04:14:04;101714.41;;;4.45;89.89
1207;BME280;593;53.184;8.216;2024-03-08T04:16:31;101698.25;;;4.45;89.38
1207;BME280;593;53.184;8.216;2024-03-08T04:18:57;101704.88;;;4.42;89.93
1207;BME280;593;53.184;8.216;2024-03-08T04:21:22;101706.53;;;4.43;89.94
1207;BME280;593;53.184;8.216;2024-03-08T04:23:48;101706.75;;;4.42;90.13
1207;BME280;593;53.184;8.216;2024-03-08T04:26:16;101707.41;;;4.37;90.24
1207;BME280;593;53.184;8.216;2024-03-08T04:28:41;101711.31;;;4.41;89.55
1207;BME280;593;53.184;8.216;2024-03-08T04:31:07;101710.28;;;4.36;89.88
1207;BME280;593;53.184;8.216;2024-03-08T04:33:33;101698.09;;;4.33;89.62
1207;BME280;593;53.184;8.216;2024-03-08T04:36:01;101699.97;;;4.33;90.07
1207;BME280;593;53.184;8.216;2024-03-08T04:38:26;101701.00;;;4.32;90.32
1207;BME280;593;53.184;8.216;2024-03-08T04:40:51;101705.19;;;4.28;90.17
1207;BME280;593;53.184;8.216;2024-03-08T04:43:17;101695.88;;;4.24;90.39
1207;BME280;593;53.184;8.216;2024-03-08T04:45:44;101700.22;;;4.25;90.36
1207;BME280;593;53.184;8.216;2024-03-08T04:48:09;101696.69;;;4.24;90.53
1207;BME280;593;53.184;8.216;2024-03-08T04:50:35;101694.84;;;4.25;90.41
1207;BME280;593;53.184;8.216;2024-03-08T04:53:00;101688.63;;;4.24;90.42
1207;BME280;593;53.184;8.216;2024-03-08T04:55:26;101691.97;;;4.20;90.62
1207;BME280;593;53.184;8.216;2024-03-08T04:57:51;101685.75;;;4.19;90.69
1207;BME280;593;53.184;8.216;2024-03-08T05:00:17;101690.31;;;4.19;90.53
1207;BME280;593;53.184;8.216;2024-03-08T05:02:42;101678.31;;;4.15;90.57
1207;BME280;593;53.184;8.216;2024-03-08T05:05:08;101663.47;;;4.06;91.13
1207;BME280;593;53.184;8.216;2024-03-08T05:07:40;101679.75;;;4.17;91.00
1207;BME280;593;53.184;8.216;2024-03-08T05:10:06;101676.22;;;4.17;91.10
1207;BME280;593;53.184;8.216;2024-03-08T05:12:33;101672.94;;;4.15;91.11
1207;BME280;593;53.184;8.216;2024-03-08T05:14:58;101679.34;;;4.14;91.54
1207;BME280;593;53.184;8.216;2024-03-08T05:17:24;101669.66;;;4.13;91.77
1207;BME280;593;53.184;8.216;2024-03-08T05:19:50;101663.44;;;4.12;91.16
1207;BME280;593;53.184;8.216;2024-03-08T05:22:16;101656.19;;;4.13;91.02
1207;BME280;593;53.184;8.216;2024-03-08T05:24:41;101671.09;;;4.09;92.08
1207;BME280;593;53.184;8.216;2024-03-08T05:27:07;101661.56;;;4.13;91.48
1207;BME280;593;53.184;8.216;2024-03-08T05:29:33;101656.19;;;4.13;91.56
1207;BME280;593;53.184;8.216;2024-03-08T05:31:58;101658.88;;;4.13;91.84
1207;BME280;593;53.184;8.216;2024-03-08T05:34:24;101650.00;;;4.06;91.46
1207;BME280;593;53.184;8.216;2024-03-08T05:36:51;101659.53;;;4.08;91.79
1207;BME280;593;53.184;8.216;2024-03-08T05:39:17;101646.09;;;4.02;91.69
1207;BME280;593;53.184;8.216;2024-03-08T05:41:43;101651.88;;;4.05;92.23
1207;BME280;593;53.184;8.216;2024-03-08T05:44:10;101648.97;;;4.07;92.13
1207;BME280;593;53.184;8.216;2024-03-08T05:46:36;101652.72;;;4.06;91.91
1207;BME280;593;53.184;8.216;2024-03-08T05:49:04;101649.59;;;4.02;92.18
1207;BME280;593;53.184;8.216;2024-03-08T05:51:37;101657.28;;;3.99;92.15
1207;BME280;593;53.184;8.216;2024-03-08T05:54:05;101651.47;;;4.02;92.20
1207;BME280;593;53.184;8.216;2024-03-08T05:56:34;101643.41;;;4.02;91.97
1207;BME280;593;53.184;8.216;2024-03-08T05:59:01;101648.16;;;4.00;92.70
1207;BME280;593;53.184;8.216;2024-03-08T06:01:27;101630.59;;;3.97;92.24
1207;BME280;593;53.184;8.216;2024-03-08T06:03:53;101641.75;;;4.01;92.72
1207;BME280;593;53.184;8.216;2024-03-08T06:06:21;101637.22;;;3.95;92.43
1207;BME280;593;53.184;8.216;2024-03-08T06:08:48;101635.13;;;3.97;92.76
1207;BME280;593;53.184;8.216;2024-03-08T06:11:17;101636.38;;;3.94;92.84
1207;BME280;593;53.184;8.216;2024-03-08T06:13:44;101630.63;;;3.91;92.32
1207;BME280;593;53.184;8.216;2024-03-08T06:16:09;101631.00;;;3.94;92.67
1207;BME280;593;53.184;8.216;2024-03-08T06:18:35;101635.78;;;3.92;92.73
1207;BME280;593;53.184;8.216;2024-03-08T06:21:07;101630.63;;;3.91;92.48
1207;BME280;593;53.184;8.216;2024-03-08T06:23:37;101628.53;;;3.93;92.53
1207;BME280;593;53.184;8.216;2024-03-08T06:26:07;101624.25;;;3.85;93.26
1207;BME280;593;53.184;8.216;2024-03-08T06:28:33;101619.69;;;3.85;93.14
1207;BME280;593;53.184;8.216;2024-03-08T06:31:00;101626.50;;;3.88;92.87
1207;BME280;593;53.184;8.216;2024-03-08T06:33:26;101615.56;;;3.83;93.12
1207;BME280;593;53.184;8.216;2024-03-08T06:35:55;101630.00;;;3.88;92.85
1207;BME280;593;53.184;8.216;2024-03-08T06:38:24;101620.28;;;3.87;92.68
1207;BME280;593;53.184;8.216;2024-03-08T06:40:49;101627.13;;;3.90;93.33
1207;BME280;593;53.184;8.216;2024-03-08T06:43:16;101622.09;;;3.94;93.05
1207;BME280;593;53.184;8.216;2024-03-08T06:45:43;101608.88;;;3.92;93.27
1207;BME280;593;53.184;8.216;2024-03-08T06:48:14;101625.63;;;3.94;92.85
1207;BME280;593;53.184;8.216;2024-03-08T06:50:40;101617.56;;;3.94;92.83
1207;BME280;593;53.184;8.216;2024-03-08T06:53:05;101617.13;;;3.97;92.69
1207;BME280;593;53.184;8.216;2024-03-08T06:55:31;101614.66;;;3.96;92.79
1207;BME280;593;53.184;8.216;2024-03-08T06:57:58;101613.41;;;3.98;92.24
1207;BME280;593;53.184;8.216;2024-03-08T07:00:24;101615.03;;;3.99;92.72
1207;BME280;593;53.184;8.216;2024-03-08T07:02:52;101619.59;;;3.99;93.01
1207;BME280;593;53.184;8.216;2024-03-08T07:05:19;101629.09;;;4.01;92.82
1207;BME280;593;53.184;8.216;2024-03-08T07:07:44;101622.47;;;4.04;93.23
1207;BME280;593;53.184;8.216;2024-03-08T07:10:10;101626.59;;;4.06;93.30
1207;BME280;593;53.184;8.216;2024-03-08T07:12:41;101628.25;;;4.07;93.51
1207;BME280;593;53.184;8.216;2024-03-08T07:15:07;101618.53;;;4.06;92.94
1207;BME280;593;53.184;8.216;2024-03-08T07:17:32;101620.97;;;4.14;93.17
1207;BME280;593;53.184;8.216;2024-03-08T07:20:00;101622.03;;;4.13;92.87
1207;BME280;593;53.184;8.216;2024-03-08T07:22:36;101610.63;;;4.11;92.63
1207;BME280;593;53.184;8.216;2024-03-08T07:25:02;101616.16;;;4.23;92.61
1207;BME280;593;53.184;8.216;2024-03-08T07:27:54;101621.13;;;4.26;92.40
1207;BME280;593;53.184;8.216;2024-03-08T07:30:24;101620.28;;;4.25;91.96
1207;BME280;593;53.184;8.216;2024-03-08T07:33:09;101623.56;;;4.27;92.09
1207;BME280;593;53.184;8.216;2024-03-08T07:35:38;101620.47;;;4.30;90.92
1207;BME280;593;53.184;8.216;2024-03-08T07:38:04;101629.34;;;4.31;90.92
1207;BME280;593;53.184;8.216;2024-03-08T07:40:37;101618.56;;;4.31;90.03
1207;BME280;593;53.184;8.216;2024-03-08T07:43:06;101613.81;;;4.33;89.97
1207;BME280;593;53.184;8.216;2024-03-08T07:45:31;101608.19;;;4.34;90.41
1207;BME280;593;53.184;8.216;2024-03-08T07:47:57;101604.84;;;4.39;90.25
1207;BME280;593;53.184;8.216;2024-03-08T07:50:23;101611.47;;;4.43;89.72
1207;BME280;593;53.184;8.216;2024-03-08T07:52:48;101605.00;;;4.44;89.43
1207;BME280;593;53.184;8.216;2024-03-08T07:55:14;101606.94;;;4.37;88.70
1207;BME280;593;53.184;8.216;2024-03-08T07:57:40;101609.41;;;4.38;88.17
1207;BME280;593;53.184;8.216;2024-03-08T08:00:06;101624.09;;;4.42;88.58
1207;BME280;593;53.184;8.216;2024-03-08T08:02:33;101608.97;;;4.41;88.07
1207;BME280;593;53.184;8.216;2024-03-08T08:05:00;101602.38;;;4.37;88.58
1207;BME280;593;53.184;8.216;2024-03-08T08:07:26;101604.41;;;4.42;88.82
1207;BME280;593;53.184;8.216;2024-03-08T08:09:53;101612.06;;;4.45;87.54
1207;BME280;593;53.184;8.216;2024-03-08T08:12:18;101607.16;;;4.35;87.99
1207;BME280;593;53.184;8.216;2024-03-08T08:14:44;101602.75;;;4.41;87.65
1207;BME280;593;53.184;8.216;2024-03-08T08:17:09;101607.50;;;4.45;88.28
1207;BME280;593;53.184;8.216;2024-03-08T08:19:35;101603.16;;;4.44;88.27
1207;BME280;593;53.184;8.216;2024-03-08T08:22:03;101608.09;;;4.47;87.94
1207;BME280;593;53.184;8.216;2024-03-08T08:24:28;101599.84;;;4.42;88.27
1207;BME280;593;53.184;8.216;2024-03-08T08:26:54;101598.59;;;4.45;88.98
1207;BME280;593;53.184;8.216;2024-03-08T08:29:19;101598.75;;;4.50;88.84
1207;BME280;593;53.184;8.216;2024-03-08T08:31:46;101594.22;;;4.50;88.70
1207;BME280;593;53.184;8.216;2024-03-08T08:34:12;101596.00;;;4.57;89.04
1207;BME280;593;53.184;8.216;2024-03-08T08:36:38;101590.25;;;4.53;88.84
1207;BME280;593;53.184;8.216;2024-03-08T08:39:05;101592.03;;;4.59;89.47
1207;BME280;593;53.184;8.216;2024-03-08T08:41:30;101581.59;;;4.69;89.82
1207;BME280;593;53.184;8.216;2024-03-08T08:43:57;101588.41;;;4.72;88.14
1207;BME280;593;53.184;8.216;2024-03-08T08:46:22;101580.72;;;4.75;88.96
1207;BME280;593;53.184;8.216;2024-03-08T08:48:48;101578.03;;;4.75;88.24
1207;BME280;593;53.184;8.216;2024-03-08T08:51:13;101581.09;;;4.79;87.76
1207;BME280;593;53.184;8.216;2024-03-08T08:53:42;101582.50;;;4.81;87.66
1207;BME280;593;53.184;8.216;2024-03-08T08:56:12;101573.63;;;4.81;86.93
1207;BME280;593;53.184;8.216;2024-03-08T08:58:44;101582.06;;;4.84;86.26
1207;BME280;593;53.184;8.216;2024-03-08T09:01:10;101574.00;;;4.84;86.42
1207;BME280;593;53.184;8.216;2024-03-08T09:03:36;101572.28;;;4.90;86.84
1207;BME280;593;53.184;8.216;2024-03-08T09:06:08;101568.72;;;4.96;85.84
1207;BME280;593;53.184;8.216;2024-03-08T09:08:36;101567.44;;;4.98;86.50
1207;BME280;593;53.184;8.216;2024-03-08T09:11:01;101559.13;;;5.00;85.67
1207;BME280;593;53.184;8.216;2024-03-08T09:13:27;101563.00;;;5.04;85.36
1207;BME280;593;53.184;8.216;2024-03-08T09:15:52;101555.53;;;5.06;84.78
1207;BME280;593;53.184;8.216;2024-03-08T09:18:18;101552.16;;;5.10;85.52
1207;BME280;593;53.184;8.216;2024-03-08T09:20:44;101562.50;;;5.13;84.79
1207;BME280;593;53.184;8.216;2024-03-08T09:23:10;101547.53;;;5.17;84.47
1207;BME280;593;53.184;8.216;2024-03-08T09:25:35;101549.53;;;5.22;85.28
1207;BME280;593;53.184;8.216;2024-03-08T09:28:01;101557.53;;;5.29;85.17
1207;BME280;593;53.184;8.216;2024-03-08T09:30:26;101544.69;;;5.31;84.23
1207;BME280;593;53.184;8.216;2024-03-08T09:32:52;101529.91;;;5.33;83.26
1207;BME280;593;53.184;8.216;2024-03-08T09:37:45;101532.06;;;5.43;83.61
1207;BME280;593;53.184;8.216;2024-03-08T09:40:13;101524.13;;;5.48;83.80
1207;BME280;593;53.184;8.216;2024-03-08T09:42:41;101518.72;;;5.48;82.83
1207;BME280;593;53.184;8.216;2024-03-08T09:45:11;101526.72;;;5.54;82.52
1207;BME280;593;53.184;8.216;2024-03-08T09:47:41;101514.06;;;5.55;82.59
1207;BME280;593;53.184;8.216;2024-03-08T09:50:08;101508.22;;;5.58;83.29
1207;BME280;593;53.184;8.216;2024-03-08T09:52:47;101508.56;;;5.61;83.59
1207;BME280;593;53.184;8.216;2024-03-08T09:55:15;101498.16;;;5.65;82.36
1207;BME280;593;53.184;8.216;2024-03-08T09:57:43;101502.16;;;5.74;81.98
1207;BME280;593;53.184;8.216;2024-03-08T10:00:29;101495.84;;;5.80;82.83
1207;BME280;593;53.184;8.216;2024-03-08T10:03:00;101496.31;;;5.77;82.05
1207;BME280;593;53.184;8.216;2024-03-08T10:05:26;101514.06;;;5.85;81.64
1207;BME280;593;53.184;8.216;2024-03-08T10:07:51;101492.69;;;5.83;81.36
1207;BME280;593;53.184;8.216;2024-03-08T10:10:18;101493.69;;;5.89;80.95
1207;BME280;593;53.184;8.216;2024-03-08T10:12:43;101492.41;;;5.91;81.26
1207;BME280;593;53.184;8.216;2024-03-08T10:15:11;101476.53;;;5.95;81.13
1207;BME280;593;53.184;8.216;2024-03-08T10:17:37;101486.78;;;6.04;80.58
1207;BME280;593;53.184;8.216;2024-03-08T10:20:17;101477.16;;;6.08;79.64
1207;BME280;593;53.184;8.216;2024-03-08T10:22:43;101476.69;;;6.11;78.75
1207;BME280;593;53.184;8.216;2024-03-08T10:25:12;101470.00;;;6.14;80.04
1207;BME280;593;53.184;8.216;2024-03-08T10:27:40;101464.97;;;6.17;79.37
1207;BME280;593;53.184;8.216;2024-03-08T10:30:10;101464.84;;;6.24;79.33
1207;BME280;593;53.184;8.216;2024-03-08T10:32:35;101452.28;;;6.29;80.77
1207;BME280;593;53.184;8.216;2024-03-08T10:35:01;101449.13;;;6.32;79.38
1207;BME280;593;53.184;8.216;2024-03-08T10:37:27;101449.34;;;6.31;79.28
1207;BME280;593;53.184;8.216;2024-03-08T10:40:04;101453.09;;;6.30;78.39
1207;BME280;593;53.184;8.216;2024-03-08T10:42:40;101438.41;;;6.37;78.34
1207;BME280;593;53.184;8.216;2024-03-08T10:45:15;101443.22;;;6.47;78.92
1207;BME280;593;53.184;8.216;2024-03-08T10:47:49;101457.09;;;6.51;78.18
1207;BME280;593;53.184;8.216;2024-03-08T10:50:19;101431.50;;;6.53;76.91
1207;BME280;593;53.184;8.216;2024-03-08T10:52:52;101424.19;;;6.65;77.75
1207;BME280;593;53.184;8.216;2024-03-08T10:55:18;101434.75;;;6.67;78.57
1207;BME280;593;53.184;8.216;2024-03-08T10:57:45;101421.69;;;6.75;77.75
1207;BME280;593;53.184;8.216;2024-03-08T11:00:12;101423.09;;;6.78;76.73
1207;BME280;593;53.184;8.216;2024-03-08T11:02:38;101414.72;;;6.79;77.14
1207;BME280;593;53.184;8.216;2024-03-08T11:05:04;101416.75;;;6.84;77.26
1207;BME280;593;53.184;8.216;2024-03-08T11:07:34;101415.44;;;6.86;77.18
1207;BME280;593;53.184;8.216;2024-03-08T11:10:02;101413.16;;;6.95;75.67
1207;BME280;593;53.184;8.216;2024-03-08T11:12:36;101415.16;;;6.99;74.61
1207;BME280;593;53.184;8.216;2024-03-08T11:15:10;101407.88;;;7.00;74.09
1207;BME280;593;53.184;8.216;2024-03-08T11:22:40;101395.94;;;7.13;73.51
1207;BME280;593;53.184;8.216;2024-03-08T11:25:09;101380.53;;;7.13;72.70
1207;BME280;593;53.184;8.216;2024-03-08T11:27:35;101384.66;;;7.16;72.96
1207;BME280;593;53.184;8.216;2024-03-08T11:30:06;101363.75;;;7.11;73.19
1207;BME280;593;53.184;8.216;2024-03-08T11:32:36;101377.94;;;7.18;70.90
1207;BME280;593;53.184;8.216;2024-03-08T11:35:06;101370.38;;;7.20;71.93
1207;BME280;593;53.184;8.216;2024-03-08T11:37:33;101373.44;;;7.24;71.91
1207;BME280;593;53.184;8.216;2024-03-08T11:40:00;101364.81;;;7.27;71.68
1207;BME280;593;53.184;8.216;2024-03-08T11:42:27;101360.59;;;7.31;72.06
1207;BME280;593;53.184;8.216;2024-03-08T11:44:53;101358.34;;;7.28;70.85
1207;BME280;593;53.184;8.216;2024-03-08T11:47:19;101359.28;;;7.33;71.90
1207;BME280;593;53.184;8.216;2024-03-08T11:49:45;101346.88;;;7.37;71.41
1207;BME280;593;53.184;8.216;2024-03-08T11:52:13;101351.25;;;7.38;71.18
1207;BME280;593;53.184;8.216;2024-03-08T11:54:57;101333.22;;;7.44;72.04
1207;BME280;593;53.184;8.216;2024-03-08T11:57:23;101342.88;;;7.40;70.95
1207;BME280;593;53.184;8.216;2024-03-08T11:59:52;101340.69;;;7.53;70.64
1207;BME280;593;53.184;8.216;2024-03-08T12:02:18;101335.84;;;7.55;70.02
1207;BME280;593;53.184;8.216;2024-03-08T12:04:47;101329.28;;;7.51;70.91
1207;BME280;593;53.184;8.216;2024-03-08T12:07:12;101332.72;;;7.63;70.52
1207;BME280;593;53.184;8.216;2024-03-08T12:09:40;101331.06;;;7.62;70.71
1207;BME280;593;53.184;8.216;2024-03-08T12:12:06;101314.91;;;7.67;70.50
1207;BME280;593;53.184;8.216;2024-03-08T12:14:35;101330.41;;;7.72;70.72
1207;BME280;593;53.184;8.216;2024-03-08T12:17:02;101316.22;;;7.65;70.15
1207;BME280;593;53.184;8.216;2024-03-08T12:19:28;101306.94;;;7.78;70.91
1207;BME280;593;53.184;8.216;2024-03-08T12:21:54;101307.28;;;7.81;70.06
1207;BME280;593;53.184;8.216;2024-03-08T12:24:20;101307.03;;;7.83;69.67
1207;BME280;593;53.184;8.216;2024-03-08T12:26:47;101311.38;;;7.84;68.41
1207;BME280;593;53.184;8.216;2024-03-08T12:29:25;101278.63;;;7.85;67.46
1207;BME280;593;53.184;8.216;2024-03-08T12:31:54;101291.09;;;7.86;66.45
1207;BME280;593;53.184;8.216;2024-03-08T12:34:20;101300.03;;;7.87;66.38
1207;BME280;593;53.184;8.216;2024-03-08T12:36:50;101280.34;;;7.91;66.98
1207;BME280;593;53.184;8.216;2024-03-08T12:39:18;101270.22;;;7.87;67.08
1207;BME280;593;53.184;8.216;2024-03-08T12:42:05;101274.75;;;7.98;65.11
1207;BME280;593;53.184;8.216;2024-03-08T12:44:31;101264.72;;;7.98;65.12
1207;BME280;593;53.184;8.216;2024-03-08T12:46:56;101277.84;;;8.06;65.90
1207;BME280;593;53.184;8.216;2024-03-08T12:49:24;101276.81;;;8.12;67.80
1207;BME280;593;53.184;8.216;2024-03-08T12:51:50;101265.50;;;8.15;66.59
1207;BME280;593;53.184;8.216;2024-03-08T12:54:17;101256.38;;;8.21;65.41
1207;BME280;593;53.184;8.216;2024-03-08T12:56:42;101242.91;;;8.26;64.52
1207;BME280;593;53.184;8.216;2024-03-08T12:59:08;101238.41;;;8.37;64.06
1207;BME280;593;53.184;8.216;2024-03-08T13:01:34;101241.13;;;8.37;63.64
1207;BME280;593;53.184;8.216;2024-03-08T13:04:03;101242.31;;;8.46;62.97
1207;BME280;593;53.184;8.216;2024-03-08T13:06:29;101223.59;;;8.45;62.93
1207;BME280;593;53.184;8.216;2024-03-08T13:08:56;101231.03;;;8.54;63.12
1207;BME280;593;53.184;8.216;2024-03-08T13:11:24;101221.88;;;8.60;63.85
1207;BME280;593;53.184;8.216;2024-03-08T13:13:51;101214.91;;;8.69;63.76
1207;BME280;593;53.184;8.216;2024-03-08T13:16:18;101227.13;;;8.72;62.15
1207;BME280;593;53.184;8.216;2024-03-08T13:18:44;101212.25;;;8.74;62.21
1207;BME280;593;53.184;8.216;2024-03-08T13:21:10;101216.66;;;8.80;61.96
1207;BME280;593;53.184;8.216;2024-03-08T13:23:39;101205.28;;;8.83;62.49
1207;BME280;593;53.184;8.216;2024-03-08T13:26:09;101206.41;;;8.87;62.32
1207;BME280;593;53.184;8.216;2024-03-08T13:28:35;101194.78;;;8.92;60.80
1207;BME280;593;53.184;8.216;2024-03-08T13:31:04;101191.00;;;8.93;61.32
1207;BME280;593;53.184;8.216;2024-03-08T13:33:33;101175.53;;;8.93;62.09
1207;BME280;593;53.184;8.216;2024-03-08T13:36:01;101179.91;;;8.99;62.59
1207;BME280;593;53.184;8.216;2024-03-08T13:38:28;101170.44;;;9.02;62.57
1207;BME280;593;53.184;8.216;2024-03-08T13:40:53;101163.72;;;9.10;61.90